Latest Weather Observations for Samuel Hill

IDQ60801

Issued at 8:02 am EST Saturday 23 May 2015 (issued every 30 minutes, with the page automatically refreshed every 10 minutes)

About weather observations | Map of weather stations | Latest weather observations for QLD | Other Formats
Station Details ID: 033308 Name: SAMUEL HILL AERO Lat: -22.74 Lon: 150.66 Height: 31.0 m
Data from the previous 72 hours. | See also: Recent months at Samuel Hill
Date/Time
EST
Temp
°C
App
Temp
°C
Dew
Point
Rel
Hum
%
Delta-T
°C
Wind Press
QNH
hPa
Press
MSL
hPa
Rain
since 9 am
mm
Dir
 
Spd
km/h
Gust
km/h
Spd
kts
Gust
kts
23/08:00am 14.7 13.0 9.7 72 2.6 SSE 9 13 5 7 1021.3 1021.2 0.0
23/07:30am 12.1 10.5 8.9 81 1.6 SSE 7 9 4 5 1020.8 1020.7 0.0
23/07:00am 9.6 9.2 8.4 92 0.6 CALM 0 0 0 0 1020.6 1020.5 0.0
23/06:30am 8.7 7.8 7.6 93 0.5 ENE 2 7 1 4 1020.3 1020.2 0.0
23/06:00am 8.6 6.7 6.9 89 0.8 ESE 6 7 3 4 1020.0 1019.9 0.0
23/05:30am 9.7 7.9 7.1 84 1.2 ESE 6 7 3 4 1019.6 1019.5 0.0
23/05:00am 9.1 6.9 7.9 92 0.6 SE 9 13 5 7 1019.5 1019.4 0.0
23/04:30am 8.8 7.8 7.4 91 0.7 SE 2 7 1 4 1019.4 1019.3 0.0
23/04:00am 8.8 8.1 7.1 89 0.8 CALM 0 0 0 0 1019.3 1019.2 0.0
23/03:30am 9.8 8.8 7.2 84 1.2 SSE 2 7 1 4 1019.5 1019.4 0.0
23/03:00am 10.4 8.7 7.5 82 1.4 ESE 6 7 3 4 1019.8 1019.7 0.0
23/02:30am 11.2 9.2 6.9 75 2.0 E 7 9 4 5 1019.9 1019.8 0.0
23/02:00am 12.1 9.8 7.4 73 2.3 SE 9 11 5 6 1020.2 1020.1 0.0
23/01:30am 11.4 9.4 6.9 74 2.1 ESE 7 9 4 5 1020.5 1020.4 0.0
23/01:00am 12.2 10.2 7.1 71 2.4 SSE 7 11 4 6 1020.7 1020.6 0.0
23/12:30am 13.5 11.1 7.1 65 3.1 SSE 9 19 5 10 1020.7 1020.6 0.0
23/12:00am 13.9 11.1 7.0 63 3.3 SE 11 17 6 9 1020.8 1020.7 0.0
 
Date/Time
EST
Temp
°C
App
Temp
°C
Dew
Point
Rel
Hum
%
Delta-T
°C
Wind Press
QNH
hPa
Press
MSL
hPa
Rain
since 9 am
mm
Dir
 
Spd
km/h
Gust
km/h
Spd
kts
Gust
kts
22/11:30pm 14.9 11.7 6.7 58 4.0 S 13 30 7 16 1020.8 1020.7 0.0
22/11:00pm 15.5 11.2 6.8 56 4.2 S 19 30 10 16 1021.0 1020.9 0.0
22/10:30pm 16.0 11.9 6.4 53 4.7 S 17 26 9 14 1021.1 1021.0 0.0
22/10:00pm 16.9 12.2 6.1 49 5.3 SSW 20 32 11 17 1020.9 1020.8 0.0
22/09:30pm 17.0 12.7 5.3 46 5.6 S 17 30 9 16 1020.8 1020.7 0.0
22/09:00pm 16.9 13.3 5.2 46 5.6 SSE 13 20 7 11 1020.6 1020.5 0.0
22/08:30pm 16.3 13.5 5.0 47 5.4 SE 9 13 5 7 1020.6 1020.5 0.0
22/08:00pm 17.5 13.9 4.8 43 6.0 S 13 22 7 12 1020.3 1020.2 0.0
22/07:30pm 17.2 14.0 4.9 44 5.9 SSE 11 19 6 10 1020.1 1020.0 0.0
22/07:00pm 18.3 15.1 5.2 42 6.3 S 11 19 6 10 1019.7 1019.6 0.0
22/06:30pm 19.1 15.4 4.5 38 7.0 S 13 20 7 11 1019.0 1018.9 0.0
22/06:00pm 19.8 16.1 4.7 37 7.3 S 13 20 7 11 1018.5 1018.4 0.0
22/05:30pm 20.6 17.3 6.2 39 7.2 S 13 20 7 11 1018.0 1017.9 0.0
22/05:00pm 21.6 17.9 6.3 37 7.7 SSW 15 20 8 11 1017.5 1017.4 0.0
22/04:30pm 22.5 19.3 6.7 36 8.1 SSW 13 24 7 13 1017.2 1017.1 0.0
22/04:00pm 23.2 20.2 7.7 37 8.1 SSW 13 19 7 10 1016.9 1016.8 0.0
22/03:30pm 23.8 20.3 8.6 38 8.1 SW 17 24 9 13 1016.7 1016.6 0.0
22/03:00pm 23.4 20.3 8.7 39 7.9 S 15 22 8 12 1016.5 1016.4 0.0
22/02:30pm 23.2 20.0 8.5 39 7.8 SSE 15 20 8 11 1016.6 1016.5 0.0
22/02:00pm 23.3 20.0 9.7 42 7.4 SSW 17 24 9 13 1016.8 1016.7 0.0
22/01:30pm 23.1 19.2 8.8 40 7.6 S 19 32 10 17 1017.0 1016.9 0.0
22/01:00pm 23.1 19.4 9.5 42 7.4 SSW 19 28 10 15 1017.3 1017.2 0.0
22/12:30pm 23.7 20.8 9.7 41 7.6 SW 15 26 8 14 1017.6 1017.5 0.0
22/12:00pm 23.0 20.1 9.8 43 7.2 S 15 20 8 11 1017.8 1017.7 0.0
22/11:30am 22.3 18.8 10.1 46 6.6 SSE 19 28 10 15 1018.2 1018.1 0.0
22/11:00am 22.3 19.7 10.8 48 6.3 SSW 15 28 8 15 1018.5 1018.4 0.0
22/10:30am 22.0 19.4 12.0 53 5.6 S 17 24 9 13 1018.7 1018.6 0.0
22/10:00am 21.5 18.8 12.9 58 4.9 SSE 19 30 10 16 1019.0 1018.9 0.0
22/09:30am 21.0 18.2 13.2 61 4.5 S 20 32 11 17 1019.1 1019.0 0.0
22/09:00am 20.8 18.2 13.3 62 4.3 SSE 19 26 10 14 1018.8 1018.7 0.0
22/08:30am 20.4 20.4 13.6 65 3.9 SSW 6 15 3 8 1018.6 1018.5 0.0
22/08:00am 19.2 19.1 14.0 72 3.0 SW 7 11 4 6 1018.4 1018.3 0.0
22/07:30am 19.0 19.2 14.3 74 2.7 SW 6 9 3 5 1018.1 1018.0 0.0
22/07:00am 18.5 18.9 14.8 79 2.1 SW 6 7 3 4 1017.6 1017.5 0.0
22/06:30am 18.3 18.5 14.6 79 2.1 SSW 7 9 4 5 1017.3 1017.2 0.0
22/06:00am 18.9 19.3 15.2 79 2.2 SW 7 9 4 5 1017.1 1017.0 0.0
22/05:30am 19.0 19.4 15.3 79 2.2 SSW 7 13 4 7 1016.7 1016.6 0.0
22/05:00am 18.8 20.2 16.4 86 1.4 SW 4 7 2 4 1016.3 1016.2 0.0
22/04:30am 18.5 20.5 15.9 85 1.5 CALM 0 0 0 0 1016.1 1016.0 0.0
22/04:00am 19.2 20.2 15.3 78 2.3 SW 4 7 2 4 1016.0 1015.9 0.0
22/03:30am 19.5 19.9 15.2 76 2.5 SW 7 13 4 7 1016.1 1016.0 0.0
22/03:00am 19.5 19.6 15.6 78 2.3 WSW 9 15 5 8 1016.1 1016.0 0.0
22/02:30am 19.8 19.4 16.3 80 2.1 SW 13 19 7 10 1016.2 1016.1 0.0
22/02:00am 20.1 20.0 16.9 82 1.9 WSW 13 19 7 10 1016.4 1016.3 0.0
22/01:30am 20.7 20.5 17.7 83 1.9 WSW 15 20 8 11 1016.6 1016.5 0.0
22/01:00am 21.5 23.0 19.8 90 1.1 WSW 11 20 6 11 1016.8 1016.7 0.0
22/12:30am 21.2 23.9 20.2 94 0.6 WSW 6 9 3 5 1017.0 1016.9 0.0
22/12:00am 20.8 22.5 20.1 96 0.4 WSW 11 15 6 8 1017.3 1017.2 0.0
 
Date/Time
EST
Temp
°C
App
Temp
°C
Dew
Point
Rel
Hum
%
Delta-T
°C
Wind Press
QNH
hPa
Press
MSL
hPa
Rain
since 9 am
mm
Dir
 
Spd
km/h
Gust
km/h
Spd
kts
Gust
kts
21/11:30pm 19.6 21.4 18.8 95 0.5 WSW 7 9 4 5 1017.3 1017.2 0.0
21/11:00pm 19.3 21.2 18.5 95 0.5 WNW 6 9 3 5 1017.3 1017.2 0.0
21/10:30pm 19.3 21.5 18.3 94 0.6 NW 4 6 2 3 1017.3 1017.2 0.0
21/10:02pm 19.8 21.9 19.0 95 0.5 W 6 9 3 5 1017.5 1017.4 0.0
21/10:00pm 19.8 21.9 19.0 95 0.5 WNW 6 9 3 5 1017.4 1017.3 0.0
21/09:40pm 19.6 21.4 18.4 93 0.7 N 6 9 3 5 1017.1 1017.0 0.0
21/09:30pm 19.7 21.6 18.5 93 0.7 N 6 7 3 4 1017.2 1017.1 0.0
21/09:00pm 19.4 20.9 17.7 90 1.0 SW 6 7 3 4 1017.3 1017.2 0.0
21/08:30pm 20.4 23.5 18.7 90 1.1 CALM 0 0 0 0 1017.4 1017.3 0.0
21/08:00pm 21.2 23.7 19.8 92 0.9 SW 6 9 3 5 1017.3 1017.2 0.0
21/07:30pm 21.0 23.2 19.5 91 1.0 NNE 7 9 4 5 1016.6 1016.5 0.0
21/07:00pm 21.3 23.4 19.0 87 1.4 NE 6 7 3 4 1016.6 1016.5 0.0
21/06:30pm 22.7 25.3 20.0 85 1.7 NE 6 7 3 4 1016.5 1016.4 0.0
21/06:00pm 23.0 24.9 19.8 82 2.1 NNE 9 15 5 8 1016.1 1016.0 0.0
21/05:30pm 23.6 24.7 19.7 79 2.5 NNE 13 17 7 9 1015.9 1015.8 0.0
21/05:00pm 24.6 26.1 19.7 74 3.2 NE 11 17 6 9 1015.7 1015.6 0.0
21/04:30pm 25.5 26.7 19.9 71 3.6 NE 13 20 7 11 1015.5 1015.4 0.0
21/04:00pm 26.5 27.7 19.9 67 4.3 N 13 19 7 10 1015.2 1015.1 0.0
21/03:30pm 26.9 27.5 19.5 64 4.8 N 15 22 8 12 1015.0 1014.9 0.0
21/03:00pm 27.0 27.7 19.6 64 4.8 NNW 15 22 8 12 1015.1 1015.0 0.0
21/02:30pm 27.5 27.9 19.8 63 5.0 NNW 17 22 9 12 1015.3 1015.2 0.0
21/02:00pm 27.2 27.6 19.8 64 4.8 NE 17 24 9 13 1015.4 1015.3 0.0
21/01:30pm 27.1 27.8 19.7 64 4.8 N 15 20 8 11 1015.8 1015.7 0.0
21/01:00pm 26.6 27.4 19.0 63 4.9 NNE 13 20 7 11 1016.2 1016.1 0.0
21/12:30pm 26.9 28.8 19.8 65 4.6 NNE 9 19 5 10 1016.6 1016.5 0.0
21/12:00pm 27.5 28.3 19.0 59 5.5 NNE 13 22 7 12 1017.2 1017.1 0.0
21/11:30am 26.8 27.4 19.4 64 4.8 NNE 15 19 8 10 1017.7 1017.6 0.0
21/11:00am 25.5 26.9 18.7 66 4.3 NNW 9 15 5 8 1018.2 1018.1 0.0
21/10:30am 25.2 26.9 19.3 70 3.8 N 9 13 5 7 1018.6 1018.5 0.0
21/10:00am 25.3 27.3 19.9 72 3.5 NNE 9 15 5 8 1019.0 1018.9 0.0
21/09:30am 24.6 28.1 21.1 81 2.3 NE 4 7 2 4 1019.3 1019.2 0.0
21/09:23am 24.1 27.1 20.8 82 2.2 NNE 6 7 3 4 1019.4 1019.3 0.0
21/09:10am 23.8 27.1 21.5 87 1.5 E 6 7 3 4 1019.5 1019.4 0.0
21/09:00am 22.8 26.2 20.9 89 1.2 E 4 7 2 4 1019.5 1019.4 0.2
21/08:30am 21.4 24.3 20.6 95 0.5 S 6 9 3 5 1019.3 1019.2 0.2
21/08:00am 21.1 23.9 20.4 96 0.5 SSE 6 9 3 5 1019.1 1019.0 0.2
21/07:30am 20.8 24.6 20.1 96 0.4 CALM 0 0 0 0 1018.8 1018.7 0.2
21/07:00am 20.2 23.7 19.5 96 0.4 CALM 0 0 0 0 1018.6 1018.5 0.2
21/06:30am 19.9 21.9 19.1 95 0.5 SW 7 9 4 5 1018.3 1018.2 0.2
21/06:18am 19.9 22.1 19.1 95 0.5 SW 6 7 3 4 1018.2 1018.1 0.2
21/06:00am 19.8 21.9 19.0 95 0.5 SW 6 6 3 3 1018.0 1017.9 0.2
21/05:30am 19.8 23.1 19.0 95 0.5 CALM 0 0 0 0 1017.7 1017.6 0.2
21/05:00am 19.7 22.9 18.9 95 0.5 CALM 0 0 0 0 1017.5 1017.4 0.2
21/04:54am 19.7 22.9 18.9 95 0.5 CALM 0 0 0 0 1017.6 1017.5 0.2
21/04:30am 19.7 22.9 18.9 95 0.5 CALM 0 0 0 0 1017.4 1017.3 0.2
21/04:19am 19.5 22.6 18.7 95 0.5 CALM 0 0 0 0 1017.5 1017.4 0.2
21/04:00am 19.4 22.4 18.4 94 0.6 CALM 0 0 0 0 1017.4 1017.3 0.2
21/03:30am 19.4 22.4 18.4 94 0.6 CALM 0 0 0 0 1017.5 1017.4 0.2
21/03:26am 19.4 22.5 18.6 95 0.5 CALM 0 0 0 0 1017.5 1017.4 0.2
21/03:09am 19.5 22.6 18.7 95 0.5 CALM 0 0 0 0 1017.5 1017.4 0.2
21/03:00am 19.5 22.6 18.7 95 0.5 CALM 0 0 0 0 1017.6 1017.5 0.2
21/02:53am 19.5 22.6 18.7 95 0.5 CALM 0 0 0 0 1017.6 1017.5 0.2
21/02:30am 19.4 22.5 18.6 95 0.5 CALM 0 0 0 0 1017.8 1017.7 0.2
21/02:00am 19.6 22.8 18.8 95 0.5 CALM 0 0 0 0 1018.0 1017.9 0.2
21/01:59am 19.5 22.6 18.7 95 0.5 CALM 0 0 0 0 1018.0 1017.9 0.2
21/01:38am 19.0 21.9 18.2 95 0.5 CALM 0 0 0 0 1018.1 1018.0 0.2
21/01:30am 19.0 21.8 18.0 94 0.6 CALM 0 0 0 0 1018.1 1018.0 0.2
21/01:18am 18.6 21.2 17.4 93 0.7 CALM 0 0 0 0 1018.3 1018.2 0.2
21/01:05am 18.7 21.4 17.7 94 0.6 CALM 0 0 0 0 1018.4 1018.3 0.2
21/01:03am 18.8 21.5 17.8 94 0.6 CALM 0 0 0 0 1018.4 1018.3 0.2
21/01:00am 18.8 21.5 17.8 94 0.6 CALM 0 0 0 0 1018.4 1018.3 0.2
21/12:30am 18.9 21.7 17.9 94 0.6 CALM 0 0 0 0 1018.4 1018.3 0.2
21/12:17am 19.1 22.0 18.1 94 0.6 CALM 0 0 0 0 1018.5 1018.4 0.2
21/12:11am 19.2 22.2 18.4 95 0.5 CALM 0 0 0 0 1018.6 1018.5 0.2
21/12:00am 19.5 22.6 18.7 95 0.5 CALM 0 0 0 0 1018.7 1018.6 0.2
 
Date/Time
EST
Temp
°C
App
Temp
°C
Dew
Point
Rel
Hum
%
Delta-T
°C
Wind Press
QNH
hPa
Press
MSL
hPa
Rain
since 9 am
mm
Dir
 
Spd
km/h
Gust
km/h
Spd
kts
Gust
kts
20/11:45pm 19.1 21.9 17.9 93 0.7 CALM 0 0 0 0 1018.8 1018.7 0.2
20/11:30pm 19.3 22.2 18.3 94 0.6 CALM 0 0 0 0 1018.9 1018.8 0.2
20/11:00pm 19.2 22.1 18.2 94 0.6 CALM 0 0 0 0 1019.3 1019.2 0.2
20/10:38pm 19.3 22.2 18.3 94 0.6 CALM 0 0 0 0 1019.3 1019.2 0.2
20/10:30pm 19.2 22.1 18.2 94 0.6 CALM 0 0 0 0 1019.2 1019.1 0.2
20/10:10pm 19.0 21.8 18.0 94 0.6 CALM 0 0 0 0 1019.3 1019.2 0.2
20/10:00pm 19.1 21.2 18.1 94 0.6 SSE 4 7 2 4 1019.3 1019.2 0.2
20/09:30pm 19.3 22.2 18.3 94 0.6 CALM 0 0 0 0 1019.2 1019.1 0.2
20/09:25pm 19.1 22.0 18.1 94 0.6 CALM 0 0 0 0 1019.3 1019.2 0.2
20/09:00pm 19.0 21.7 17.7 92 0.8 CALM 0 6 0 3 1019.2 1019.1 0.2
20/08:49pm 18.9 20.2 17.2 90 1.0 SE 6 7 3 4 1019.2 1019.1 0.2
20/08:30pm 20.0 22.8 18.8 93 0.8 SSE 2 7 1 4 1019.1 1019.0 0.2
20/08:00pm 19.9 23.0 18.6 92 0.8 CALM 0 0 0 0 1018.9 1018.8 0.2
20/07:30pm 20.4 22.4 19.2 93 0.8 SSE 7 9 4 5 1018.6 1018.5 0.2
20/07:00pm 20.7 22.8 19.4 92 0.8 SE 7 11 4 6 1018.3 1018.2 0.2
20/06:30pm 21.0 22.6 19.1 89 1.2 SE 9 11 5 6 1018.0 1017.9 0.2
20/06:00pm 21.3 22.8 19.0 87 1.4 SSE 9 11 5 6 1017.9 1017.8 0.2
20/05:30pm 21.9 23.4 18.9 83 1.9 SE 9 13 5 7 1017.5 1017.4 0.2
20/05:00pm 22.9 23.3 19.1 79 2.4 ESE 15 20 8 11 1017.3 1017.2 0.2
20/04:30pm 24.0 24.6 18.6 72 3.4 SE 13 17 7 9 1017.0 1016.9 0.2
20/04:00pm 24.7 25.3 18.6 69 3.9 ESE 13 17 7 9 1016.7 1016.6 0.2
20/03:30pm 24.9 25.4 18.3 66 4.2 ESE 13 19 7 10 1016.7 1016.6 0.2
20/03:00pm 25.3 25.9 17.7 62 4.8 E 11 17 6 9 1016.8 1016.7 0.2
20/02:30pm 25.2 26.5 19.3 70 3.8 ESE 11 17 6 9 1016.8 1016.7 0.2
20/02:00pm 25.5 26.6 18.9 67 4.2 ESE 11 19 6 10 1016.7 1016.6 0.2
20/01:30pm 25.7 26.4 18.9 66 4.3 ESE 13 20 7 11 1016.9 1016.8 0.2
20/01:00pm 25.4 26.2 19.1 68 4.0 ESE 13 20 7 11 1017.3 1017.2 0.2
20/12:30pm 25.7 26.9 19.1 67 4.2 ESE 11 15 6 8 1017.7 1017.6 0.2
20/12:00pm 25.1 25.7 18.5 67 4.2 E 13 19 7 10 1018.1 1018.0 0.2
20/11:30am 26.1 27.9 19.5 67 4.3 ESE 9 19 5 10 1018.6 1018.5 0.2
20/11:00am 24.6 25.3 18.8 70 3.7 ESE 13 19 7 10 1019.0 1018.9 0.2
20/10:30am 24.8 25.6 19.0 70 3.7 SE 13 19 7 10 1019.4 1019.3 0.0
20/10:00am 24.1 25.3 19.8 77 2.8 SE 13 20 7 11 1019.6 1019.5 0.0
20/09:39am 23.9 25.2 20.2 80 2.4 SSE 13 19 7 10 1019.9 1019.8 0.0
20/09:30am 23.5 24.7 20.0 81 2.3 SE 13 17 7 9 1019.8 1019.7 0.0
20/09:00am 22.8 24.2 20.3 86 1.6 SSE 13 20 7 11 1020.0 1019.9 0.6
20/08:30am 21.9 23.2 20.2 90 1.1 SSE 13 17 7 9 1019.7 1019.6 0.6

Other Formats:

Comma delimited format used in spreadsheet applications
http://www.bom.gov.au/fwo/IDQ60801/IDQ60801.94370.axf

JavaScript Object Notation format (JSON) in row-major order
http://www.bom.gov.au/fwo/IDQ60801/IDQ60801.94370.json